< < Back
Terminal Aerodrome Forecast


Current Version              Previous Versions:   1  2  3  4  5  6  7  8  9  

Terminal Aerodrome Forecast

717
FTUS42 KGSP 291733
TAFGSP
TAF
KGSP 291733Z 2918/3018 03009KT P6SM SCT030 BKN150
     FM292300 04006KT P6SM FEW040 BKN150
     FM300100 04003KT P6SM SCT150
     FM301500 05007KT P6SM FEW040 SCT150=

Latest METAR

336
SAUS70 KWBC 301700 RRI
MTRGSP
METAR KGSP 301653Z 04008KT 10SM CLR 31/17 A3013 RMK AO2 SLP189
T03060172


USA.gov is the U.S. government's official web portal to all federal, state and local government web resources and services.